עמוד ראשי
METAR-TAF:

METAR-TAF

שדות תעופה :

Puerto Natales, צ'ילה

קו רוחב: 51-40-15S, קו אורך: 072-31-42W, גובה: 66מטר

תצפית מזג אוויר נוכחית

הדו"ח נערך לפני 11 שעות ו 16דקות, בשעה 22:00 UTC
רוח 7קשר מכיוון צפון-מערב
טמפרטורת -3 צלסיוס
לחות 93%
לחץ 1023 hPa
ראות 10 קילומטר או יותר
עננים פזורים בגובה 4000רגל

METAR: SCNT 232200Z 31007KT 9999 SCT040 M03/M04 Q1023

זמן: 05:16 (09:16 UTC)

תחזית

הדו"ח נערך לפני 22 שעות ו 33דקות, בשעה 10:43 UTC
תחזית בתוקף מ 23 ב 12 UTC עד 24 ב 00 UTC
רוח 4קשר מכיוון צפון
ראות 10 קילומטר או יותר
מעט עננים בגובה 2000רגל
יעשה מ
23 ב 12 UTC עד 23 ב 14 UTC
רוח 10קשר מכיוון דרום/דרום-מערב
מעט עננים בגובה 1000רגל
עננים בינוניים בגובה 3000רגל
זמנית מ -
23 ב 20 UTC עד 24 ב 00 UTC
ראות: 0800מטר
מעונן בגובה 500רגל
ערפל קפוא,

TAF: SCNT 231043Z 2312/2400 36004KT 9999 FEW020 TNM07/2400Z TX00/2314Z BECMG 2312/2314 20010KT FEW010 BKN030 TEMPO 2320/2400 0800 FZFG OVC005

תצפיות ותחזיות מזג אוויר לגבי יותר מ- 4,000 שדות תעופה ברחבי העולם. דוחות METAR ו- TAF.

התחנות הזמינות מסומנות בנקודות צהובות ואדומות על גבי המפה.

העבר את העכבר לנקודה הצבעונית על מנת לראות את שם התחנה.

לאחר מכן, לחץ כדי לראות את תוכן ואת תחזיות מזג האוויר.

כדי לשנות את המפה: לחץ על הכפתורים הירוקים עם הפלוס השחור כדי להתקרב; על הכפתור הירוק עם המקף כדי להתרחק; או בחיצים הירוקים למפות סמוכות.


METAR-TAF: